Time;durP1;ratioP1;P1;durP2;ratioP2;P2;SDS_P1;SDS_P2;PMS_P1;PMS_P2;Temp;Humidity;BMP_temperature;BMP_pressure;BME280_temperature;BME280_humidity;BME280_pressure;Samples;Min_cycle;Max_cycle;Signal;HPM_P1;HPM_P2
2022/09/02 00:02:22;;;;;;;4.75;2.28;;;15.10;99.90;;;;;;5003495;28;20045;-89
2022/09/02 00:04:47;;;;;;;4.97;2.58;;;14.90;99.90;;;;;;5006165;28;20044;-90
2022/09/02 00:07:13;;;;;;;4.35;2.17;;;15.10;99.90;;;;;;5005885;28;20037;-89
2022/09/02 00:09:39;;;;;;;6.10;2.42;;;14.40;99.90;;;;;;5024761;28;20045;-89
2022/09/02 00:12:06;;;;;;;4.65;2.40;;;14.80;99.90;;;;;;5007909;28;20037;-89
2022/09/02 00:14:35;;;;;;;4.93;2.30;;;14.50;99.90;;;;;;5026269;28;20095;-89
2022/09/02 00:17:01;;;;;;;5.53;2.42;;;15.80;99.90;;;;;;5007968;28;20489;-88
2022/09/02 00:19:28;;;;;;;6.72;2.30;;;15.00;99.90;;;;;;5026602;28;20786;-90
2022/09/02 00:21:55;;;;;;;6.15;2.65;;;14.50;99.90;;;;;;4987093;28;20033;-89
2022/09/02 00:24:22;;;;;;;5.53;2.60;;;14.80;99.90;;;;;;5027761;28;20038;-89
2022/09/02 00:26:48;;;;;;;4.65;2.13;;;14.80;99.90;;;;;;5009206;28;20044;-88
2022/09/02 00:29:14;;;;;;;5.85;2.25;;;13.80;99.90;;;;;;5008578;28;20051;-89
2022/09/02 00:31:44;;;;;;;6.03;2.50;;;14.40;99.90;;;;;;5009708;28;20379;-89
2022/09/02 00:34:12;;;;;;;4.55;1.92;;;13.80;99.90;;;;;;5008164;28;20080;-89
2022/09/02 00:36:39;;;;;;;4.50;1.80;;;14.40;99.90;;;;;;5025323;28;20527;-90
2022/09/02 00:39:07;;;;;;;4.90;2.40;;;13.80;1.00;;;;;;5006128;28;20040;-89
2022/09/02 00:41:34;;;;;;;6.57;2.10;;;14.80;1.00;;;;;;5007504;28;20049;-89
2022/09/02 00:44:02;;;;;;;4.53;2.15;;;14.40;1.00;;;;;;4989757;28;20033;-90
2022/09/02 00:46:30;;;;;;;4.75;2.20;;;14.50;1.00;;;;;;5016365;28;20054;-89
2022/09/02 00:49:32;;;;;;;4.72;2.28;;;14.90;1.00;;;;;;5007112;28;20044;-90
2022/09/02 00:52:06;;;;;;;6.30;2.05;;;14.70;1.00;;;;;;4953910;28;20056;-90
2022/09/02 00:54:36;;;;;;;6.68;2.78;;;14.70;1.00;;;;;;5006383;28;20586;-89
2022/09/02 00:57:06;;;;;;;5.30;2.25;;;14.20;1.00;;;;;;4990241;28;20048;-88
2022/09/02 00:59:50;;;;;;;5.53;1.77;;;14.10;1.00;;;;;;4991266;28;20042;-90
2022/09/02 01:02:16;;;;;;;4.55;1.80;;;13.60;1.00;;;;;;5001800;28;20033;-89
2022/09/02 01:04:45;;;;;;;4.93;2.15;;;14.20;1.00;;;;;;5005815;28;20072;-90
2022/09/02 01:07:11;;;;;;;4.78;1.95;;;13.70;1.00;;;;;;4989338;28;20029;-88
2022/09/02 01:09:38;;;;;;;4.60;1.90;;;14.40;1.00;;;;;;5023858;28;20037;-89
2022/09/02 01:12:05;;;;;;;4.40;1.98;;;14.00;1.00;;;;;;5006244;28;20049;-89
2022/09/02 01:14:31;;;;;;;4.57;1.80;;;14.10;1.00;;;;;;5006523;28;20038;-90
2022/09/02 01:16:59;;;;;;;5.68;2.35;;;14.30;1.00;;;;;;5006184;28;20040;-89
2022/09/02 01:19:31;;;;;;;4.97;1.98;;;13.50;1.00;;;;;;4986198;28;20067;-90
2022/09/02 01:21:57;;;;;;;4.53;1.90;;;14.10;1.00;;;;;;4995895;28;20112;-88
2022/09/02 01:24:27;;;;;;;5.65;1.92;;;14.60;1.00;;;;;;5005467;28;20029;-88
2022/09/02 01:26:54;;;;;;;4.75;2.00;;;13.40;1.00;;;;;;5015908;28;20040;-88
2022/09/02 01:29:20;;;;;;;8.05;3.42;;;13.60;1.00;;;;;;5004804;28;20220;-89
2022/09/02 01:31:46;;;;;;;6.13;2.20;;;14.40;1.00;;;;;;5006334;28;20261;-90
2022/09/02 01:34:12;;;;;;;7.28;2.03;;;13.60;1.00;;;;;;4989132;28;20107;-89
2022/09/02 01:36:39;;;;;;;4.93;2.10;;;14.30;1.00;;;;;;5005712;28;20052;-88
2022/09/02 01:39:05;;;;;;;5.72;1.98;;;14.40;1.00;;;;;;4988232;28;20037;-88
2022/09/02 01:41:31;;;;;;;6.60;1.75;;;13.40;1.00;;;;;;5005451;28;20037;-89
2022/09/02 01:43:57;;;;;;;4.78;2.03;;;13.50;1.00;;;;;;5006210;28;20087;-88
2022/09/02 01:46:22;;;;;;;4.47;1.85;;;13.50;1.00;;;;;;5022474;28;20443;-88
2022/09/02 01:48:49;;;;;;;5.90;2.15;;;13.60;1.00;;;;;;4988416;28;20041;-87
2022/09/02 01:51:17;;;;;;;4.18;1.90;;;13.50;1.00;;;;;;5023790;28;20040;-89
2022/09/02 01:53:43;;;;;;;5.07;1.98;;;13.50;1.00;;;;;;5005264;28;20645;-89
2022/09/02 01:56:09;;;;;;;5.60;1.85;;;13.20;1.00;;;;;;5005694;28;20132;-89
2022/09/02 01:58:34;;;;;;;5.47;2.10;;;13.50;1.00;;;;;;5004508;28;20041;-89
2022/09/02 02:01:00;;;;;;;4.40;1.83;;;14.20;1.00;;;;;;5022204;28;20352;-88
2022/09/02 02:03:25;;;;;;;4.88;1.80;;;14.20;1.00;;;;;;5004899;28;20079;-88
2022/09/02 02:05:51;;;;;;;5.28;1.92;;;13.30;1.00;;;;;;5004934;28;20065;-87
2022/09/02 02:08:17;;;;;;;4.95;2.10;;;13.50;1.00;;;;;;5021637;28;20470;-88
2022/09/02 02:10:42;;;;;;;4.88;1.60;;;14.00;1.00;;;;;;5004602;28;20033;-89
2022/09/02 02:13:09;;;;;;;5.32;1.90;;;14.40;1.00;;;;;;5004447;28;20029;-89
2022/09/02 02:15:37;;;;;;;5.60;2.20;;;13.20;1.00;;;;;;4988342;28;20041;-88
2022/09/02 02:18:03;;;;;;;4.40;1.98;;;13.30;1.00;;;;;;4988141;28;20033;-88
2022/09/02 02:20:29;;;;;;;5.05;1.85;;;13.50;1.00;;;;;;5004642;28;20079;-89
2022/09/02 02:22:54;;;;;;;5.47;1.88;;;13.30;1.00;;;;;;5022639;28;20128;-88
2022/09/02 02:25:20;;;;;;;4.10;1.80;;;14.20;1.00;;;;;;5004131;28;20065;-89
2022/09/02 02:27:46;;;;;;;4.38;2.13;;;13.50;1.00;;;;;;5003758;28;20086;-88
2022/09/02 02:30:13;;;;;;;4.70;1.83;;;;;;;;;;5003251;28;20037;-89
2022/09/02 02:32:39;;;;;;;4.85;2.10;;;13.60;1.00;;;;;;4988476;28;20033;-89
2022/09/02 02:35:05;;;;;;;4.65;2.10;;;;;;;;;;5014472;22;20100;-53
2022/09/02 02:37:31;;;;;;;6.35;1.92;;;;;;;;;;5033517;28;20034;-51
2022/09/02 02:39:57;;;;;;;4.50;2.03;;;13.60;1.00;;;;;;5012678;28;20057;-52
2022/09/02 02:42:22;;;;;;;5.78;1.98;;;13.60;1.00;;;;;;5032588;28;20029;-49
2022/09/02 02:44:48;;;;;;;5.57;2.00;;;13.50;1.00;;;;;;5008853;28;20037;-52
2022/09/02 02:47:15;;;;;;;5.57;1.98;;;;;;;;;;5029927;28;20228;-49
2022/09/02 02:49:42;;;;;;;7.30;1.95;;;;;;;;;;5028797;28;20049;-50
2022/09/02 02:52:08;;;;;;;4.60;1.90;;;13.40;1.00;;;;;;5028435;28;20076;-49
2022/09/02 02:54:35;;;;;;;4.32;1.88;;;13.40;1.00;;;;;;5029942;28;20106;-51
2022/09/02 02:57:01;;;;;;;6.35;2.28;;;13.30;1.00;;;;;;5026725;28;20037;-51
2022/09/02 02:59:28;;;;;;;6.32;2.13;;;13.30;1.00;;;;;;5029614;28;20038;-50
2022/09/02 03:01:54;;;;;;;5.10;2.13;;;;;;;;;;5022254;28;20199;-51
2022/09/02 03:04:20;;;;;;;5.10;2.05;;;;;;;;;;5029801;28;20212;-50
2022/09/02 03:06:46;;;;;;;4.28;1.80;;;;;;;;;;5027350;28;20311;-51
2022/09/02 03:09:12;;;;;;;4.95;2.25;;;;;;;;;;5034760;28;20041;-51
2022/09/02 03:11:38;;;;;;;4.63;2.17;;;;;;;;;;5029576;28;20037;-49
2022/09/02 03:14:04;;;;;;;4.57;1.83;;;13.40;1.00;;;;;;5033003;28;20034;-49
2022/09/02 03:16:30;;;;;;;5.45;2.10;;;13.30;1.00;;;;;;5014257;28;20037;-53
2022/09/02 03:18:55;;;;;;;7.65;2.45;;;13.30;1.00;;;;;;5033298;28;20406;-52
2022/09/02 03:21:21;;;;;;;5.00;2.20;;;13.30;1.00;;;;;;5033219;28;20120;-52
2022/09/02 03:23:48;;;;;;;4.63;1.88;;;;;;;;;;5016275;28;20410;-50
2022/09/02 03:26:17;;;;;;;6.95;2.40;;;;;;;;;;5033315;28;20442;-49
2022/09/02 03:28:44;;;;;;;5.82;2.45;;;;;;;;;;5040693;28;20468;-52
2022/09/02 03:31:18;;;;;;;4.45;2.08;;;12.90;1.00;;;;;;5033555;28;20663;-49
2022/09/02 03:33:43;;;;;;;4.97;2.20;;;13.40;1.00;;;;;;5033759;28;20044;-50
2022/09/02 03:36:18;;;;;;;6.15;2.30;;;;;;;;;;5033557;28;20041;-51
2022/09/02 03:38:44;;;;;;;4.72;2.15;;;;;;;;;;5016211;28;20469;-50
2022/09/02 03:41:10;;;;;;;6.25;2.10;;;13.30;1.00;;;;;;5034719;28;20037;-52
2022/09/02 03:43:35;;;;;;;4.90;2.42;;;13.20;1.00;;;;;;5033421;28;20034;-49
2022/09/02 03:46:01;;;;;;;5.53;2.30;;;13.40;1.00;;;;;;5033070;28;20038;-50
2022/09/02 03:48:28;;;;;;;4.70;2.17;;;13.90;1.00;;;;;;5033223;28;20112;-51
2022/09/02 03:50:53;;;;;;;5.40;2.40;;;12.80;1.00;;;;;;5033578;28;20053;-50
2022/09/02 03:53:19;;;;;;;5.30;2.25;;;;;;;;;;5033215;28;20037;-50
2022/09/02 03:55:45;;;;;;;6.43;2.40;;;12.90;1.00;;;;;;5033336;28;20255;-50
2022/09/02 03:58:11;;;;;;;5.32;2.17;;;13.00;1.00;;;;;;5031382;28;20029;-50
2022/09/02 04:00:37;;;;;;;5.22;2.28;;;12.70;1.00;;;;;;5033166;28;20029;-50
2022/09/02 04:03:03;;;;;;;5.65;2.20;;;12.60;1.00;;;;;;5033231;28;20486;-49
2022/09/02 04:05:30;;;;;;;4.43;2.10;;;13.10;1.00;;;;;;5032618;28;20069;-52
2022/09/02 04:07:56;;;;;;;4.53;2.25;;;13.10;1.00;;;;;;5014979;28;20111;-50
2022/09/02 04:10:21;;;;;;;4.78;2.22;;;13.20;1.00;;;;;;5034679;28;20037;-50
2022/09/02 04:12:48;;;;;;;4.60;2.00;;;12.80;1.00;;;;;;5032685;28;20052;-50
2022/09/02 04:15:14;;;;;;;5.93;2.17;;;12.60;1.00;;;;;;5038434;28;20051;-50
2022/09/02 04:17:41;;;;;;;5.47;2.60;;;12.60;1.00;;;;;;5032475;28;20411;-50
2022/09/02 04:20:09;;;;;;;5.57;2.42;;;12.50;1.00;;;;;;5027408;28;20458;-50
2022/09/02 04:22:35;;;;;;;4.78;2.10;;;13.00;1.00;;;;;;5032122;28;20041;-51
2022/09/02 04:25:02;;;;;;;5.03;2.40;;;12.60;1.00;;;;;;5032490;28;20467;-50
2022/09/02 04:27:27;;;;;;;4.82;2.05;;;12.80;1.00;;;;;;5030431;28;20464;-50
2022/09/02 04:29:53;;;;;;;4.82;2.08;;;12.60;1.00;;;;;;5032219;28;20052;-49
2022/09/02 04:32:20;;;;;;;4.65;1.95;;;12.50;1.00;;;;;;5032655;28;20037;-49
2022/09/02 04:34:46;;;;;;;5.10;2.20;;;12.60;1.00;;;;;;5032758;28;20329;-49
2022/09/02 04:37:12;;;;;;;4.95;2.58;;;12.30;1.00;;;;;;5029986;28;20033;-49
2022/09/02 04:39:38;;;;;;;6.82;2.03;;;12.00;1.00;;;;;;5026455;28;20365;-49
2022/09/02 04:42:04;;;;;;;5.00;2.33;;;11.90;1.00;;;;;;5029708;28;20044;-48
2022/09/02 04:44:30;;;;;;;7.57;2.33;;;12.60;1.00;;;;;;5032525;28;20033;-49
2022/09/02 04:46:56;;;;;;;7.28;2.83;;;12.70;1.00;;;;;;5033414;28;20030;-52
2022/09/02 04:49:22;;;;;;;5.05;2.50;;;12.20;1.00;;;;;;5019442;28;20067;-49
2022/09/02 04:51:47;;;;;;;5.90;2.67;;;11.90;1.00;;;;;;5025594;28;20045;-48
2022/09/02 04:54:13;;;;;;;5.43;2.10;;;12.90;1.00;;;;;;5028930;28;20052;-49
2022/09/02 04:56:38;;;;;;;6.03;2.53;;;12.40;1.00;;;;;;5031539;28;20052;-52
2022/09/02 04:59:04;;;;;;;6.55;2.40;;;12.30;1.00;;;;;;5008287;28;20505;-51
2022/09/02 05:01:33;;;;;;;4.80;2.40;;;12.00;1.00;;;;;;4999465;28;20049;-50
2022/09/02 05:04:01;;;;;;;6.13;2.55;;;12.00;1.00;;;;;;5006480;28;20397;-49
2022/09/02 05:06:27;;;;;;;6.93;3.05;;;12.50;1.00;;;;;;5029602;28;20033;-51
2022/09/02 05:08:55;;;;;;;5.05;2.20;;;12.20;1.00;;;;;;5030411;28;20371;-52
2022/09/02 05:11:23;;;;;;;6.43;2.60;;;12.20;1.00;;;;;;5030525;28;20037;-49
2022/09/02 05:13:53;;;;;;;5.63;2.90;;;12.40;1.00;;;;;;5028862;28;20098;-49
2022/09/02 05:16:22;;;;;;;8.38;2.85;;;12.30;1.00;;;;;;5012160;28;20050;-53
2022/09/02 05:18:49;;;;;;;6.15;2.58;;;11.90;1.00;;;;;;5030693;28;20124;-49
2022/09/02 05:21:15;;;;;;;6.00;2.70;;;12.60;1.00;;;;;;5030609;28;20041;-51
2022/09/02 05:23:41;;;;;;;4.43;2.38;;;12.60;1.00;;;;;;5012630;28;20405;-50
2022/09/02 05:26:08;;;;;;;5.80;2.58;;;12.10;1.00;;;;;;5028944;28;20494;-50
2022/09/02 05:28:33;;;;;;;5.10;2.78;;;11.60;1.00;;;;;;5030664;28;20475;-50
2022/09/02 05:31:07;;;;;;;6.03;2.88;;;12.00;1.00;;;;;;5030533;28;20091;-47
2022/09/02 05:33:39;;;;;;;7.47;2.92;;;11.80;1.00;;;;;;5028841;28;20048;-50
2022/09/02 05:36:06;;;;;;;5.53;2.72;;;12.00;1.00;;;;;;5013858;28;20039;-49
2022/09/02 05:38:32;;;;;;;5.15;2.47;;;11.70;1.00;;;;;;5029457;28;20040;-50
2022/09/02 05:41:03;;;;;;;7.85;2.60;;;;;;;;;;5030176;28;20097;-50
2022/09/02 05:43:29;;;;;;;5.00;2.50;;;12.20;1.00;;;;;;5031046;28;20034;-50
2022/09/02 05:45:54;;;;;;;5.18;2.55;;;11.90;1.00;;;;;;5030942;28;20369;-53
2022/09/02 05:51:05;;;;;;;5.83;2.67;;;12.60;1.00;;;;;;5030480;28;20045;-53
2022/09/02 05:53:31;;;;;;;6.18;2.80;;;12.80;1.00;;;;;;5028435;28;20029;-53
2022/09/02 05:55:57;;;;;;;6.10;2.80;;;12.60;1.00;;;;;;5030461;28;20029;-50
2022/09/02 05:58:23;;;;;;;5.32;2.50;;;12.80;1.00;;;;;;5008227;28;20386;-53
2022/09/02 06:00:49;;;;;;;7.22;2.72;;;12.30;1.00;;;;;;4994831;28;20033;-53
2022/09/02 06:03:18;;;;;;;7.47;2.47;;;12.90;1.00;;;;;;5030793;28;20090;-53
2022/09/02 06:05:53;;;;;;;5.32;2.17;;;12.70;1.00;;;;;;5020464;28;20056;-51
2022/09/02 06:08:19;;;;;;;7.28;3.08;;;12.80;1.00;;;;;;5026330;28;20041;-52
2022/09/02 06:10:45;;;;;;;6.97;2.92;;;12.90;1.00;;;;;;5024750;28;20037;-52
2022/09/02 06:13:10;;;;;;;8.20;2.65;;;13.70;1.00;;;;;;5030138;28;20025;-53
2022/09/02 06:15:43;;;;;;;6.65;2.40;;;12.70;1.00;;;;;;5030856;28;20060;-51
2022/09/02 06:18:10;;;;;;;6.45;2.60;;;13.50;1.00;;;;;;5030223;28;20382;-53
2022/09/02 06:20:46;;;;;;;8.00;2.65;;;13.30;1.00;;;;;;5030953;28;20038;-53
2022/09/02 06:23:13;;;;;;;5.22;2.20;;;13.20;1.00;;;;;;5030636;28;20391;-51
2022/09/02 06:25:41;;;;;;;6.40;2.35;;;13.70;1.00;;;;;;5012802;28;20469;-50
2022/09/02 06:28:07;;;;;;;4.90;2.28;;;14.20;1.00;;;;;;5030045;28;20391;-53
2022/09/02 06:30:34;;;;;;;5.25;2.15;;;13.40;1.00;;;;;;5030509;28;20128;-50
2022/09/02 06:33:02;;;;;;;5.18;2.42;;;13.40;1.00;;;;;;5028861;28;20049;-53
2022/09/02 06:35:28;;;;;;;7.00;2.58;;;13.80;1.00;;;;;;5028638;28;20092;-51
2022/09/02 06:37:53;;;;;;;4.78;2.33;;;14.10;1.00;;;;;;5027537;28;20037;-50
2022/09/02 06:40:19;;;;;;;5.60;2.30;;;13.70;1.00;;;;;;5026612;28;20040;-52
2022/09/02 06:42:44;;;;;;;9.27;2.55;;;14.10;1.00;;;;;;5027437;28;20029;-53
2022/09/02 06:45:10;;;;;;;5.25;2.50;;;14.50;1.00;;;;;;5029126;28;20092;-49
2022/09/02 06:47:36;;;;;;;6.53;2.22;;;13.80;1.00;;;;;;5027311;28;20393;-53
2022/09/02 06:50:02;;;;;;;6.57;2.20;;;14.40;1.00;;;;;;5028599;28;20091;-50
2022/09/02 06:52:28;;;;;;;4.65;2.03;;;14.40;1.00;;;;;;5027872;28;20371;-53
2022/09/02 06:54:54;;;;;;;6.05;2.75;;;14.20;1.00;;;;;;5028439;28;20056;-51
2022/09/02 06:57:20;;;;;;;4.75;2.22;;;14.70;1.00;;;;;;5028343;28;20115;-50
2022/09/02 06:59:46;;;;;;;8.45;2.08;;;14.40;1.00;;;;;;5028146;28;20033;-51
2022/09/02 07:02:12;;;;;;;6.13;2.03;;;14.70;1.00;;;;;;5028466;28;20119;-52
2022/09/02 07:07:24;;;;;;;5.53;1.98;;;16.00;1.00;;;;;;5025046;28;20037;-52
2022/09/02 07:09:50;;;;;;;4.40;1.85;;;15.50;1.00;;;;;;5026996;28;20568;-51
2022/09/02 07:12:16;;;;;;;5.10;2.15;;;15.10;1.00;;;;;;5029598;28;20060;-53
2022/09/02 07:14:42;;;;;;;5.10;1.80;;;15.10;1.00;;;;;;5010038;28;20041;-50
2022/09/02 07:17:11;;;;;;;6.18;2.60;;;15.50;1.00;;;;;;5027162;28;20041;-50
2022/09/02 07:19:37;;;;;;;5.60;1.95;;;15.30;1.00;;;;;;5029547;28;20171;-53
2022/09/02 07:22:05;;;;;;;5.28;2.20;;;15.50;1.00;;;;;;5026680;28;20521;-53
2022/09/02 07:24:30;;;;;;;5.28;2.00;;;15.70;1.00;;;;;;5030132;28;20033;-49
2022/09/02 07:26:56;;;;;;;4.85;2.50;;;16.30;99.90;;;;;;5025951;28;20034;-51
2022/09/02 07:29:22;;;;;;;4.40;1.92;;;16.20;99.90;;;;;;4994973;28;20439;-53
2022/09/02 07:31:48;;;;;;;5.25;2.20;;;16.30;99.90;;;;;;5021799;28;20045;-52
2022/09/02 07:34:15;;;;;;;5.60;2.40;;;15.50;99.90;;;;;;5020271;28;20424;-52
2022/09/02 07:36:41;;;;;;;6.05;2.22;;;16.40;99.90;;;;;;5013281;28;20049;-52
2022/09/02 07:39:09;;;;;;;5.82;1.98;;;16.00;99.90;;;;;;5014624;28;20223;-50
2022/09/02 07:41:39;;;;;;;7.57;2.33;;;16.50;99.90;;;;;;5021316;28;20049;-53
2022/09/02 07:44:05;;;;;;;7.10;2.00;;;16.50;99.90;;;;;;5030723;28;20116;-54
2022/09/02 07:46:31;;;;;;;6.72;2.42;;;16.50;99.90;;;;;;5027809;28;20164;-53
2022/09/02 07:49:04;;;;;;;8.32;2.40;;;15.70;99.90;;;;;;5007916;28;20048;-51
2022/09/02 07:51:32;;;;;;;5.65;2.30;;;16.80;99.90;;;;;;5023910;28;20455;-51
2022/09/02 07:53:58;;;;;;;6.70;2.55;;;17.10;99.90;;;;;;5026713;28;20495;-52
2022/09/02 07:56:24;;;;;;;5.18;2.28;;;16.90;99.90;;;;;;5027867;28;20025;-53
2022/09/02 07:58:49;;;;;;;5.57;2.85;;;16.90;99.90;;;;;;4992185;28;20431;-53
2022/09/02 08:01:15;;;;;;;6.82;2.53;;;17.10;99.90;;;;;;5027698;28;20080;-50
2022/09/02 08:03:43;;;;;;;7.10;2.42;;;17.10;99.90;;;;;;5009337;28;20113;-53
2022/09/02 08:06:10;;;;;;;5.60;2.20;;;17.30;99.90;;;;;;5020563;28;20347;-50
2022/09/02 08:08:36;;;;;;;5.82;2.47;;;17.00;99.90;;;;;;5024046;28;20033;-53
2022/09/02 08:11:02;;;;;;;5.40;2.00;;;17.30;99.90;;;;;;5022024;28;20036;-51
2022/09/02 08:13:28;;;;;;;5.43;2.00;;;17.60;99.90;;;;;;5031809;28;20079;-51
2022/09/02 08:15:54;;;;;;;5.40;1.95;;;17.50;99.90;;;;;;4999014;28;20045;-52
2022/09/02 08:18:22;;;;;;;4.03;1.80;;;17.50;99.90;;;;;;5032148;28;20037;-51
2022/09/02 08:20:47;;;;;;;4.70;2.03;;;18.10;99.90;;;;;;5027807;28;20042;-51
2022/09/02 08:23:16;;;;;;;5.35;2.00;;;17.60;99.90;;;;;;5023756;28;20402;-52
2022/09/02 08:25:42;;;;;;;8.32;1.80;;;17.70;99.90;;;;;;5016082;28;20037;-52
2022/09/02 08:28:08;;;;;;;6.65;2.20;;;17.90;99.90;;;;;;5015158;28;20088;-53
2022/09/02 08:30:34;;;;;;;5.90;1.95;;;18.30;99.90;;;;;;5022107;28;20490;-52
2022/09/02 08:33:00;;;;;;;7.13;2.00;;;17.60;99.90;;;;;;5033001;28;20087;-54
2022/09/02 08:35:25;;;;;;;7.47;2.88;;;17.60;99.90;;;;;;5026809;28;20038;-50
2022/09/02 08:37:51;;;;;;;5.63;2.15;;;18.30;99.90;;;;;;5026306;28;20033;-53
2022/09/02 08:40:22;;;;;;;8.57;2.40;;;17.80;99.90;;;;;;5031321;28;20045;-54
2022/09/02 08:42:52;;;;;;;5.90;1.90;;;18.60;99.90;;;;;;5032946;28;20107;-53
2022/09/02 08:45:28;;;;;;;4.63;1.60;;;19.00;99.90;;;;;;5014594;28;20041;-50
2022/09/02 08:48:20;;;;;;;4.63;1.55;;;18.90;99.90;;;;;;5024094;28;20033;-50
2022/09/02 08:50:49;;;;;;;5.45;1.67;;;18.30;99.90;;;;;;5013827;28;20128;-54
2022/09/02 08:53:22;;;;;;;5.45;1.58;;;18.70;99.90;;;;;;5027037;28;20040;-52
2022/09/02 08:55:55;;;;;;;4.63;1.80;;;19.00;99.90;;;;;;5029321;28;20521;-51
2022/09/02 08:58:36;;;;;;;5.32;1.73;;;19.30;99.90;;;;;;5030594;28;20047;-53
2022/09/02 09:01:30;;;;;;;4.10;1.58;;;18.90;99.90;;;;;;5026728;28;20049;-51
2022/09/02 09:04:06;;;;;;;8.35;1.92;;;19.20;99.90;;;;;;5023159;28;20041;-54
2022/09/02 09:06:44;;;;;;;5.68;1.60;;;19.30;99.90;;;;;;5030860;28;20399;-49
2022/09/02 09:09:16;;;;;;;4.38;1.60;;;19.60;99.90;;;;;;5014192;28;20136;-51
2022/09/02 09:12:03;;;;;;;6.55;1.60;;;19.10;99.90;;;;;;5029978;28;20095;-54
2022/09/02 09:14:41;;;;;;;5.53;1.60;;;19.60;99.90;;;;;;5011715;28;20048;-53
2022/09/02 09:17:31;;;;;;;5.75;2.15;;;19.70;99.90;;;;;;5031519;28;20507;-51
2022/09/02 09:20:09;;;;;;;8.85;1.60;;;20.00;99.90;;;;;;5013309;28;20392;-53
2022/09/02 09:22:37;;;;;;;5.35;1.73;;;19.70;99.90;;;;;;5003899;28;20037;-52
2022/09/02 09:25:10;;;;;;;8.32;1.50;;;20.00;99.90;;;;;;5016849;28;20112;-54
2022/09/02 09:27:36;;;;;;;6.95;1.63;;;20.10;99.90;;;;;;5015259;28;20068;-52
2022/09/02 09:30:02;;;;;;;5.55;1.40;;;20.20;99.90;;;;;;5023194;28;20076;-51
2022/09/02 09:32:32;;;;;;;6.47;1.77;;;20.50;99.90;;;;;;5022510;28;20049;-52
2022/09/02 09:35:01;;;;;;;6.88;1.35;;;20.40;99.90;;;;;;5026571;28;20534;-51
2022/09/02 09:37:33;;;;;;;8.13;1.60;;;20.30;99.90;;;;;;5023119;28;20030;-52
2022/09/02 09:39:59;;;;;;;7.60;1.45;;;21.20;99.90;;;;;;5005954;28;20116;-51
2022/09/02 09:42:44;;;;;;;7.38;1.63;;;20.50;99.90;;;;;;5026366;28;20569;-51
2022/09/02 09:45:30;;;;;;;4.85;1.65;;;20.20;99.90;;;;;;5020313;28;20049;-54
2022/09/02 09:48:06;;;;;;;4.60;1.58;;;20.60;99.90;;;;;;5028213;28;20507;-52
2022/09/02 09:50:32;;;;;;;6.05;1.27;;;20.60;99.90;;;;;;5026322;28;20037;-52
2022/09/02 09:53:19;;;;;;;4.13;1.40;;;20.70;99.90;;;;;;5030264;28;20414;-51
2022/09/02 09:56:06;;;;;;;3.50;1.20;;;21.40;99.90;;;;;;5029828;28;20059;-54
2022/09/02 09:58:34;;;;;;;5.32;1.38;;;;;;;;;;5021134;28;20078;-52
2022/09/02 10:01:29;;;;;;;6.53;1.55;;;21.20;99.90;;;;;;5022633;28;20564;-51
2022/09/02 10:04:09;;;;;;;5.18;1.50;;;21.90;99.90;;;;;;5016954;28;20539;-51
2022/09/02 10:06:35;;;;;;;4.72;1.30;;;21.90;99.90;;;;;;5011720;28;20042;-52
2022/09/02 10:09:12;;;;;;;3.45;1.17;;;21.20;99.90;;;;;;5007614;28;20402;-52
2022/09/02 10:11:38;;;;;;;4.43;1.15;;;21.50;99.90;;;;;;5030378;28;20041;-53
2022/09/02 10:14:10;;;;;;;4.85;1.67;;;22.00;99.90;;;;;;5029149;28;20059;-52
2022/09/02 10:17:01;;;;;;;4.20;1.23;;;22.70;99.90;;;;;;5028709;28;20542;-51
2022/09/02 10:19:34;;;;;;;4.32;1.30;;;22.30;99.90;;;;;;5021952;28;20272;-52
2022/09/02 10:22:18;;;;;;;6.20;1.52;;;22.40;99.90;;;;;;5008036;28;20048;-52
2022/09/02 10:25:20;;;;;;;4.85;1.50;;;22.40;99.90;;;;;;5015334;28;20491;-52
2022/09/02 10:28:32;;;;;;;7.75;1.50;;;22.50;99.90;;;;;;5021157;28;20033;-53
2022/09/02 10:31:24;;;;;;;5.97;1.23;;;22.80;99.90;;;;;;5098680;22;20044;-53
2022/09/02 10:34:05;;;;;;;6.32;1.60;;;22.70;99.90;;;;;;5050086;28;20029;-57
2022/09/02 10:36:58;;;;;;;6.93;1.40;;;22.90;99.90;;;;;;5048344;28;20040;-54
2022/09/02 10:39:56;;;;;;;7.95;1.40;;;22.80;99.90;;;;;;5042626;28;20132;-57
2022/09/02 10:42:42;;;;;;;5.95;1.45;;;22.90;99.90;;;;;;4991672;28;20418;-56
2022/09/02 10:45:23;;;;;;;4.60;1.30;;;22.90;99.90;;;;;;5034261;28;20044;-54
2022/09/02 10:48:19;;;;;;;3.10;1.33;;;22.80;99.90;;;;;;5034711;28;20041;-56
2022/09/02 10:51:08;;;;;;;4.72;1.10;;;23.10;99.90;;;;;;5033437;28;20506;-57
2022/09/02 10:54:08;;;;;;;5.10;1.20;;;23.10;99.90;;;;;;5046785;28;20049;-57
2022/09/02 10:56:52;;;;;;;3.63;1.08;;;23.20;99.90;;;;;;5036981;28;20054;-55
2022/09/02 10:59:37;;;;;;;4.20;1.08;;;23.40;99.90;;;;;;5024887;28;20036;-55
2022/09/02 11:02:02;;;;;;;;;;;23.20;99.90;;;;;;5045867;28;20414;-57
2022/09/02 11:04:39;;;;;;;6.63;1.60;;;23.50;99.90;;;;;;5022835;28;19917;-56
2022/09/02 11:07:15;;;;;;;6.03;1.63;;;23.60;99.90;;;;;;5040453;28;20175;-56
2022/09/02 11:09:53;;;;;;;6.85;1.75;;;23.70;99.90;;;;;;5044938;28;20060;-56
2022/09/02 11:12:30;;;;;;;4.85;1.35;;;23.80;99.90;;;;;;5038459;28;20040;-57
2022/09/02 11:15:17;;;;;;;4.40;1.23;;;23.80;99.90;;;;;;5038064;28;20077;-55
2022/09/02 11:17:46;;;;;;;4.93;1.33;;;24.10;99.90;;;;;;5036805;28;20524;-56
2022/09/02 11:20:31;;;;;;;4.30;1.10;;;24.20;99.90;;;;;;5041252;28;20042;-55
2022/09/02 11:23:35;;;;;;;4.13;1.13;;;23.70;99.90;;;;;;5039111;28;20124;-57
2022/09/02 11:26:31;;;;;;;3.33;1.10;;;24.60;99.90;;;;;;5030789;28;20163;-53
2022/09/02 11:29:15;;;;;;;3.78;1.20;;;24.40;99.90;;;;;;5036468;28;20120;-54
2022/09/02 11:32:06;;;;;;;5.70;1.30;;;24.70;99.90;;;;;;5038288;28;20041;-56
2022/09/02 11:34:53;;;;;;;4.68;1.50;;;25.00;99.90;;;;;;5016664;28;20049;-55
2022/09/02 11:38:00;;;;;;;6.05;1.48;;;25.30;99.90;;;;;;5036502;28;20041;-56
2022/09/02 11:40:44;;;;;;;4.25;1.20;;;25.40;99.90;;;;;;5036863;28;20086;-57
2022/09/02 11:43:23;;;;;;;;;;;25.50;99.90;;;;;;5040978;28;20040;-57
2022/09/02 11:46:10;;;;;;;7.43;1.30;;;25.90;99.90;;;;;;5042584;28;20394;-57
2022/09/02 11:49:16;;;;;;;5.00;1.42;;;25.80;99.90;;;;;;5048009;28;20048;-55
2022/09/02 11:51:59;;;;;;;4.72;1.30;;;25.90;99.90;;;;;;5047429;28;20414;-57
2022/09/02 11:54:31;;;;;;;6.47;1.40;;;25.90;99.90;;;;;;5050266;28;20033;-57
2022/09/02 11:57:02;;;;;;;7.13;1.40;;;26.30;99.90;;;;;;5036572;28;20025;-55
2022/09/02 11:59:50;;;;;;;4.50;1.40;;;26.40;99.90;;;;;;5043485;28;20048;-56
2022/09/02 12:02:42;;;;;;;4.25;1.20;;;26.60;99.90;;;;;;5046831;28;20504;-52
2022/09/02 12:05:29;;;;;;;6.00;1.23;;;26.70;99.90;;;;;;5040422;28;20038;-56
2022/09/02 12:08:27;;;;;;;5.65;1.73;;;26.80;99.90;;;;;;5041853;28;20071;-53
2022/09/02 12:10:58;;;;;;;5.40;1.98;;;27.50;99.90;;;;;;5012089;28;20102;-56
2022/09/02 12:13:37;;;;;;;6.55;1.55;;;29.30;99.90;;;;;;5042377;28;20029;-57
2022/09/02 12:16:12;;;;;;;4.60;1.30;;;31.60;99.90;;;;;;5042289;28;20059;-57
2022/09/02 12:18:59;;;;;;;3.55;1.30;;;33.60;99.90;;;;;;5039213;28;20049;-55
2022/09/02 12:21:26;;;;;;;5.50;1.50;;;;;;;;;;5037671;28;20065;-54
2022/09/02 12:23:52;;;;;;;3.47;1.30;;;;;;;;;;5038588;28;20041;-57
2022/09/02 12:26:37;;;;;;;9.02;1.70;;;38.10;99.90;;;;;;5046603;28;20123;-57
2022/09/02 12:29:29;;;;;;;4.32;1.20;;;38.50;99.90;;;;;;5039458;28;20044;-57
2022/09/02 12:31:55;;;;;;;4.53;1.48;;;39.90;99.90;;;;;;5038580;28;20095;-57
2022/09/02 12:34:21;;;;;;;3.97;1.25;;;40.30;99.90;;;;;;5043248;28;20398;-57
2022/09/02 12:37:01;;;;;;;4.28;1.38;;;41.80;99.90;;;;;;5042039;28;20040;-57
2022/09/02 12:39:26;;;;;;;5.05;1.33;;;42.60;99.90;;;;;;5041005;28;20042;-57
2022/09/02 12:42:08;;;;;;;4.80;1.35;;;42.20;99.90;;;;;;5028095;28;20123;-55
2022/09/02 12:44:50;;;;;;;5.38;1.20;;;43.20;99.90;;;;;;5036978;28;20065;-57
2022/09/02 12:47:25;;;;;;;4.05;1.30;;;42.60;99.90;;;;;;5046082;28;20040;-57
2022/09/02 12:50:17;;;;;;;5.13;1.30;;;41.50;99.90;;;;;;5039474;28;20134;-54
2022/09/02 12:52:49;;;;;;;4.95;1.30;;;42.10;99.90;;;;;;5047576;28;20041;-57
2022/09/02 12:55:28;;;;;;;4.05;1.50;;;42.20;99.90;;;;;;5029249;28;20086;-57
2022/09/02 12:58:23;;;;;;;3.88;1.23;;;43.10;99.90;;;;;;5041176;28;20423;-56
2022/09/02 13:01:04;;;;;;;4.95;1.40;;;43.80;99.90;;;;;;5033294;28;20076;-56
2022/09/02 13:03:53;;;;;;;5.88;1.60;;;43.00;99.90;;;;;;5035754;28;20083;-56
2022/09/02 13:06:22;;;;;;;4.90;1.35;;;43.70;99.90;;;;;;5031993;28;20033;-51
2022/09/02 13:09:18;;;;;;;3.53;1.17;;;42.80;99.90;;;;;;5016673;28;20052;-55
2022/09/02 13:11:57;;;;;;;5.22;1.58;;;43.00;99.90;;;;;;5050682;28;20067;-56
2022/09/02 13:14:51;;;;;;;7.68;1.30;;;43.90;99.90;;;;;;5043941;28;20056;-55
2022/09/02 13:17:46;;;;;;;6.22;1.42;;;43.80;99.90;;;;;;5047148;28;20033;-55
2022/09/02 13:20:26;;;;;;;4.80;1.40;;;44.20;99.90;;;;;;5046662;28;20045;-56
2022/09/02 13:23:00;;;;;;;4.32;1.27;;;44.30;99.90;;;;;;5047553;28;20053;-55
2022/09/02 13:25:44;;;;;;;5.65;1.52;;;44.10;99.90;;;;;;5051957;28;20029;-55
2022/09/02 13:28:15;;;;;;;4.60;1.42;;;44.70;99.90;;;;;;5051375;28;20041;-53